sensor_id;sensor_type;location;lat;lon;timestamp;pressure;altitude;pressure_sealevel;temperature;humidity
5877;BME280;2964;42.144;24.730;2022-07-23T00:01:19;147548.13;;;24.13;61.10
5877;BME280;2964;42.144;24.730;2022-07-23T00:03:46;147469.44;;;23.81;62.60
5877;BME280;2964;42.144;24.730;2022-07-23T00:06:13;147440.25;;;23.69;62.76
5877;BME280;2964;42.144;24.730;2022-07-23T00:08:40;147439.00;;;23.68;63.39
5877;BME280;2964;42.144;24.730;2022-07-23T00:11:06;147483.38;;;23.86;62.94
5877;BME280;2964;42.144;24.730;2022-07-23T00:13:33;147545.56;;;24.12;62.73
5877;BME280;2964;42.144;24.730;2022-07-23T00:16:02;147553.19;;;24.15;62.38
5877;BME280;2964;42.144;24.730;2022-07-23T00:18:28;147501.16;;;23.94;62.57
5877;BME280;2964;42.144;24.730;2022-07-23T00:20:55;147524.00;;;24.03;63.52
5877;BME280;2964;42.144;24.730;2022-07-23T00:23:22;147319.78;;;23.20;65.74
5877;BME280;2964;42.144;24.730;2022-07-23T00:25:50;147487.22;;;23.88;65.27
5877;BME280;2964;42.144;24.730;2022-07-23T00:28:17;147447.88;;;23.72;66.00
5877;BME280;2964;42.144;24.730;2022-07-23T00:30:44;147452.94;;;23.74;67.23
5877;BME280;2964;42.144;24.730;2022-07-23T00:33:12;147384.44;;;23.46;68.53
5877;BME280;2964;42.144;24.730;2022-07-23T00:35:40;147299.50;;;23.12;69.46
5877;BME280;2964;42.144;24.730;2022-07-23T00:38:08;147210.72;;;22.76;71.42
5877;BME280;2964;42.144;24.730;2022-07-23T00:40:37;147141.00;;;22.48;73.05
5877;BME280;2964;42.144;24.730;2022-07-23T00:43:04;147122.00;;;22.40;73.44
5877;BME280;2964;42.144;24.730;2022-07-23T00:45:31;147099.19;;;22.31;73.75
5877;BME280;2964;42.144;24.730;2022-07-23T00:47:58;147083.94;;;22.25;74.02
5877;BME280;2964;42.144;24.730;2022-07-23T00:50:27;147011.72;;;21.95;74.48
5877;BME280;2964;42.144;24.730;2022-07-23T00:52:54;147144.78;;;22.49;72.41
5877;BME280;2964;42.144;24.730;2022-07-23T00:55:20;147091.56;;;22.28;73.14
5877;BME280;2964;42.144;24.730;2022-07-23T00:57:47;147034.53;;;22.05;74.08
5877;BME280;2964;42.144;24.730;2022-07-23T01:00:15;147010.47;;;21.95;74.44
5877;BME280;2964;42.144;24.730;2022-07-23T01:02:42;147010.47;;;21.95;74.27
5877;BME280;2964;42.144;24.730;2022-07-23T01:05:09;147012.97;;;21.96;74.16
5877;BME280;2964;42.144;24.730;2022-07-23T01:07:38;146986.38;;;21.85;74.51
5877;BME280;2964;42.144;24.730;2022-07-23T01:10:05;146976.25;;;21.81;74.39
5877;BME280;2964;42.144;24.730;2022-07-23T01:12:52;147010.47;;;21.95;74.90
5877;BME280;2964;42.144;24.730;2022-07-23T01:15:19;147059.84;;;22.15;73.90
5877;BME280;2964;42.144;24.730;2022-07-23T01:17:46;147019.34;;;21.98;73.85
5877;BME280;2964;42.144;24.730;2022-07-23T01:20:13;147040.84;;;22.07;74.02
5877;BME280;2964;42.144;24.730;2022-07-23T01:22:41;147014.22;;;21.96;73.87
5877;BME280;2964;42.144;24.730;2022-07-23T01:25:08;146997.78;;;21.90;73.52
5877;BME280;2964;42.144;24.730;2022-07-23T01:27:35;147025.66;;;22.01;73.02
5877;BME280;2964;42.144;24.730;2022-07-23T01:30:03;147040.84;;;22.07;72.78
5877;BME280;2964;42.144;24.730;2022-07-23T01:32:30;147010.47;;;21.95;72.93
5877;BME280;2964;42.144;24.730;2022-07-23T01:34:56;146978.81;;;21.82;72.51
5877;BME280;2964;42.144;24.730;2022-07-23T01:37:23;147014.22;;;21.96;71.69
5877;BME280;2964;42.144;24.730;2022-07-23T01:39:51;147000.31;;;21.91;70.79
5877;BME280;2964;42.144;24.730;2022-07-23T01:42:18;146997.78;;;21.90;69.84
5877;BME280;2964;42.144;24.730;2022-07-23T01:44:45;146958.50;;;21.74;69.20
5877;BME280;2964;42.144;24.730;2022-07-23T01:47:11;147020.59;;;21.99;69.18
5877;BME280;2964;42.144;24.730;2022-07-23T01:49:38;147012.97;;;21.96;68.85
5877;BME280;2964;42.144;24.730;2022-07-23T01:52:05;146983.88;;;21.84;69.16
5877;BME280;2964;42.144;24.730;2022-07-23T01:54:36;146896.47;;;21.49;68.62
5877;BME280;2964;42.144;24.730;2022-07-23T01:57:06;146892.66;;;21.47;69.13
5877;BME280;2964;42.144;24.730;2022-07-23T01:59:33;146981.31;;;21.83;69.38
5877;BME280;2964;42.144;24.730;2022-07-23T02:02:00;146963.56;;;21.76;69.33
5877;BME280;2964;42.144;24.730;2022-07-23T02:04:28;146893.94;;;21.48;69.56
5877;BME280;2964;42.144;24.730;2022-07-23T02:06:55;147019.34;;;21.98;68.84
5877;BME280;2964;42.144;24.730;2022-07-23T02:09:22;146999.03;;;21.90;69.01
5877;BME280;2964;42.144;24.730;2022-07-23T02:11:49;146992.72;;;21.88;68.85
5877;BME280;2964;42.144;24.730;2022-07-23T02:14:17;147002.84;;;21.92;68.41
5877;BME280;2964;42.144;24.730;2022-07-23T02:16:43;147024.41;;;22.01;68.26
5877;BME280;2964;42.144;24.730;2022-07-23T02:19:10;147078.88;;;22.23;66.65
5877;BME280;2964;42.144;24.730;2022-07-23T02:21:37;147066.19;;;22.17;67.00
5877;BME280;2964;42.144;24.730;2022-07-23T02:24:04;147015.53;;;21.97;67.68
5877;BME280;2964;42.144;24.730;2022-07-23T02:26:31;146869.84;;;21.38;70.35
5877;BME280;2964;42.144;24.730;2022-07-23T02:29:00;146784.97;;;21.04;71.68
5877;BME280;2964;42.144;24.730;2022-07-23T02:31:28;146806.50;;;21.12;71.99
5877;BME280;2964;42.144;24.730;2022-07-23T02:33:55;146833.13;;;21.23;71.99
5877;BME280;2964;42.144;24.730;2022-07-23T02:36:22;146838.19;;;21.25;72.73
5877;BME280;2964;42.144;24.730;2022-07-23T02:38:48;146852.09;;;21.31;72.97
5877;BME280;2964;42.144;24.730;2022-07-23T02:41:15;146820.44;;;21.18;73.96
5877;BME280;2964;42.144;24.730;2022-07-23T02:43:42;146806.50;;;21.12;73.70
5877;BME280;2964;42.144;24.730;2022-07-23T02:46:09;146784.97;;;21.04;74.13
5877;BME280;2964;42.144;24.730;2022-07-23T02:48:37;146729.28;;;20.81;74.09
5877;BME280;2964;42.144;24.730;2022-07-23T02:51:04;146810.31;;;21.14;73.42
5877;BME280;2964;42.144;24.730;2022-07-23T02:53:30;146825.50;;;21.20;73.90
5877;BME280;2964;42.144;24.730;2022-07-23T02:55:57;146849.53;;;21.30;73.78
5877;BME280;2964;42.144;24.730;2022-07-23T02:58:24;146838.19;;;21.25;72.97
5877;BME280;2964;42.144;24.730;2022-07-23T03:00:52;146817.88;;;21.17;73.46
5877;BME280;2964;42.144;24.730;2022-07-23T03:03:18;146848.28;;;21.29;74.59
5877;BME280;2964;42.144;24.730;2022-07-23T03:05:47;146849.53;;;21.30;73.17
5877;BME280;2964;42.144;24.730;2022-07-23T03:08:13;146848.28;;;21.29;73.83
5877;BME280;2964;42.144;24.730;2022-07-23T03:10:40;146858.41;;;21.33;72.27
5877;BME280;2964;42.144;24.730;2022-07-23T03:13:07;146899.00;;;21.50;71.67
5877;BME280;2964;42.144;24.730;2022-07-23T03:15:34;146890.13;;;21.46;71.67
5877;BME280;2964;42.144;24.730;2022-07-23T03:18:00;146888.88;;;21.46;72.65
5877;BME280;2964;42.144;24.730;2022-07-23T03:20:27;146893.94;;;21.48;72.69
5877;BME280;2964;42.144;24.730;2022-07-23T03:22:55;146917.97;;;21.57;71.73
5877;BME280;2964;42.144;24.730;2022-07-23T03:25:22;146906.59;;;21.53;72.17
5877;BME280;2964;42.144;24.730;2022-07-23T03:27:49;146896.47;;;21.49;71.57
5877;BME280;2964;42.144;24.730;2022-07-23T03:30:16;146866.03;;;21.36;72.19
5877;BME280;2964;42.144;24.730;2022-07-23T03:32:42;146850.84;;;21.30;72.08
5877;BME280;2964;42.144;24.730;2022-07-23T03:35:10;146852.09;;;21.31;72.51
5877;BME280;2964;42.144;24.730;2022-07-23T03:37:36;146652.03;;;20.50;71.62
5877;BME280;2964;42.144;24.730;2022-07-23T03:40:06;146929.41;;;21.62;71.23
5877;BME280;2964;42.144;24.730;2022-07-23T03:42:33;146938.25;;;21.66;69.71
5877;BME280;2964;42.144;24.730;2022-07-23T03:45:00;147020.59;;;21.99;70.52
5877;BME280;2964;42.144;24.730;2022-07-23T03:47:27;146997.78;;;21.90;70.06
5877;BME280;2964;42.144;24.730;2022-07-23T03:49:53;146969.94;;;21.78;69.48
5877;BME280;2964;42.144;24.730;2022-07-23T03:52:20;146928.16;;;21.62;70.47
5877;BME280;2964;42.144;24.730;2022-07-23T03:54:47;147020.59;;;21.99;69.02
5877;BME280;2964;42.144;24.730;2022-07-23T03:57:15;146975.00;;;21.81;68.75
5877;BME280;2964;42.144;24.730;2022-07-23T03:59:41;146982.56;;;21.84;68.58
5877;BME280;2964;42.144;24.730;2022-07-23T04:02:08;146990.19;;;21.87;69.12
5877;BME280;2964;42.144;24.730;2022-07-23T04:04:35;146943.31;;;21.68;68.97
5877;BME280;2964;42.144;24.730;2022-07-23T04:07:02;146966.13;;;21.77;68.60
5877;BME280;2964;42.144;24.730;2022-07-23T04:09:29;146954.69;;;21.72;68.65
5877;BME280;2964;42.144;24.730;2022-07-23T04:11:55;146938.25;;;21.66;69.15
5877;BME280;2964;42.144;24.730;2022-07-23T04:14:23;147033.28;;;22.04;67.85
5877;BME280;2964;42.144;24.730;2022-07-23T04:16:50;147038.34;;;22.06;67.49
5877;BME280;2964;42.144;24.730;2022-07-23T04:19:17;147012.97;;;21.96;67.31
5877;BME280;2964;42.144;24.730;2022-07-23T04:21:44;147045.91;;;22.09;67.57
5877;BME280;2964;42.144;24.730;2022-07-23T04:24:10;147075.06;;;22.21;67.35
5877;BME280;2964;42.144;24.730;2022-07-23T04:26:37;147077.59;;;22.22;66.23
5877;BME280;2964;42.144;24.730;2022-07-23T04:29:04;147035.78;;;22.05;66.93
5877;BME280;2964;42.144;24.730;2022-07-23T04:31:32;147168.88;;;22.59;65.95
5877;BME280;2964;42.144;24.730;2022-07-23T04:33:59;147298.22;;;23.11;63.69
5877;BME280;2964;42.144;24.730;2022-07-23T04:36:25;147535.44;;;24.07;61.32
5877;BME280;2964;42.144;24.730;2022-07-23T04:38:52;147720.72;;;24.82;57.36
5877;BME280;2964;42.144;24.730;2022-07-23T04:41:19;147895.97;;;25.53;55.37
5877;BME280;2964;42.144;24.730;2022-07-23T04:43:45;147642.00;;;24.51;57.68
5877;BME280;2964;42.144;24.730;2022-07-23T04:46:12;147544.31;;;24.11;59.43
5877;BME280;2964;42.144;24.730;2022-07-23T04:48:40;147984.84;;;25.89;54.97
5877;BME280;2964;42.144;24.730;2022-07-23T04:51:08;148273.41;;;27.06;52.71
5877;BME280;2964;42.144;24.730;2022-07-23T04:53:36;148597.72;;;28.37;48.83
5877;BME280;2964;42.144;24.730;2022-07-23T04:56:04;148782.28;;;29.11;46.15
5877;BME280;2964;42.144;24.730;2022-07-23T04:58:30;148919.81;;;29.67;45.41
5877;BME280;2964;42.144;24.730;2022-07-23T05:00:57;149165.72;;;30.66;42.40
5877;BME280;2964;42.144;24.730;2022-07-23T05:03:24;149151.69;;;30.60;43.66
5877;BME280;2964;42.144;24.730;2022-07-23T05:05:52;149272.75;;;31.09;42.97
5877;BME280;2964;42.144;24.730;2022-07-23T05:08:19;149262.56;;;31.05;41.72
5877;BME280;2964;42.144;24.730;2022-07-23T05:10:46;149515.03;;;32.06;39.42
5877;BME280;2964;42.144;24.730;2022-07-23T05:13:14;149890.13;;;33.57;36.92
5877;BME280;2964;42.144;24.730;2022-07-23T05:15:40;149909.28;;;33.65;35.72
5877;BME280;2964;42.144;24.730;2022-07-23T05:18:07;149585.13;;;32.35;38.57
5877;BME280;2964;42.144;24.730;2022-07-23T05:20:34;149805.88;;;33.23;37.13
5877;BME280;2964;42.144;24.730;2022-07-23T05:23:02;149549.44;;;32.20;37.85
5877;BME280;2964;42.144;24.730;2022-07-23T05:25:29;149683.41;;;32.74;37.70
5877;BME280;2964;42.144;24.730;2022-07-23T05:27:55;150086.78;;;34.36;35.45
5877;BME280;2964;42.144;24.730;2022-07-23T05:30:22;150301.34;;;35.23;34.77
5877;BME280;2964;42.144;24.730;2022-07-23T05:32:49;150052.28;;;34.22;34.52
5877;BME280;2964;42.144;24.730;2022-07-23T05:35:16;150085.47;;;34.36;34.00
5877;BME280;2964;42.144;24.730;2022-07-23T05:37:43;150592.75;;;36.40;33.32
5877;BME280;2964;42.144;24.730;2022-07-23T05:40:12;150614.50;;;36.48;31.81
5877;BME280;2964;42.144;24.730;2022-07-23T05:42:39;150010.13;;;34.06;35.64
5877;BME280;2964;42.144;24.730;2022-07-23T05:45:07;150288.56;;;35.17;32.57
5877;BME280;2964;42.144;24.730;2022-07-23T05:47:42;150811.41;;;37.27;31.29
5877;BME280;2964;42.144;24.730;2022-07-23T05:50:10;150720.63;;;36.91;31.64
5877;BME280;2964;42.144;24.730;2022-07-23T05:52:37;150424.03;;;35.72;32.53
5877;BME280;2964;42.144;24.730;2022-07-23T05:55:05;150187.69;;;34.77;34.76
5877;BME280;2964;42.144;24.730;2022-07-23T05:57:33;149956.50;;;33.84;35.32
5877;BME280;2964;42.144;24.730;2022-07-23T06:00:00;150484.06;;;35.96;32.29
5877;BME280;2964;42.144;24.730;2022-07-23T06:02:27;150127.56;;;34.53;34.62
5877;BME280;2964;42.144;24.730;2022-07-23T06:04:54;150114.84;;;34.48;35.15
5877;BME280;2964;42.144;24.730;2022-07-23T06:07:21;150734.69;;;36.97;32.41
5877;BME280;2964;42.144;24.730;2022-07-23T06:09:47;150233.66;;;34.95;32.10
5877;BME280;2964;42.144;24.730;2022-07-23T06:12:14;150625.97;;;36.53;31.92
5877;BME280;2964;42.144;24.730;2022-07-23T06:14:43;151270.81;;;39.12;28.97
5877;BME280;2964;42.144;24.730;2022-07-23T06:17:10;151108.25;;;38.47;28.84
5877;BME280;2964;42.144;24.730;2022-07-23T06:19:36;151297.72;;;39.23;28.45
5877;BME280;2964;42.144;24.730;2022-07-23T06:22:03;151455.19;;;39.86;28.16
5877;BME280;2964;42.144;24.730;2022-07-23T06:24:30;150917.59;;;37.70;30.43
5877;BME280;2964;42.144;24.730;2022-07-23T06:26:57;151165.84;;;38.70;28.04
5877;BME280;2964;42.144;24.730;2022-07-23T06:29:23;150695.03;;;36.81;28.21
5877;BME280;2964;42.144;24.730;2022-07-23T06:31:52;150516.03;;;36.09;31.55
5877;BME280;2964;42.144;24.730;2022-07-23T06:34:19;151258.06;;;39.07;27.59
5877;BME280;2964;42.144;24.730;2022-07-23T06:36:45;150134.00;;;34.55;32.42
5877;BME280;2964;42.144;24.730;2022-07-23T06:39:12;150810.13;;;37.27;31.67
5877;BME280;2964;42.144;24.730;2022-07-23T06:41:39;151064.72;;;38.29;28.31
5877;BME280;2964;42.144;24.730;2022-07-23T06:44:06;150490.50;;;35.99;32.13
5877;BME280;2964;42.144;24.730;2022-07-23T06:46:32;151092.91;;;38.40;30.39
5877;BME280;2964;42.144;24.730;2022-07-23T06:49:01;151360.50;;;39.48;28.61
5877;BME280;2964;42.144;24.730;2022-07-23T06:51:29;151649.94;;;40.64;26.07
5877;BME280;2964;42.144;24.730;2022-07-23T06:53:56;151496.22;;;40.02;26.87
5877;BME280;2964;42.144;24.730;2022-07-23T06:56:24;151423.19;;;39.73;25.85
5877;BME280;2964;42.144;24.730;2022-07-23T06:58:53;151314.38;;;39.29;27.18
5877;BME280;2964;42.144;24.730;2022-07-23T07:01:20;151523.09;;;40.13;26.31
5877;BME280;2964;42.144;24.730;2022-07-23T07:03:47;151694.78;;;40.82;25.06
5877;BME280;2964;42.144;24.730;2022-07-23T07:06:16;151387.38;;;39.59;26.34
5877;BME280;2964;42.144;24.730;2022-07-23T07:08:42;151617.94;;;40.51;25.66
5877;BME280;2964;42.144;24.730;2022-07-23T07:11:10;151471.91;;;39.92;26.56
5877;BME280;2964;42.144;24.730;2022-07-23T07:13:37;151866.53;;;41.51;23.74
5877;BME280;2964;42.144;24.730;2022-07-23T07:16:04;151872.91;;;41.53;23.94
5877;BME280;2964;42.144;24.730;2022-07-23T07:18:31;151506.50;;;40.06;24.68
5877;BME280;2964;42.144;24.730;2022-07-23T07:20:58;152083.19;;;42.37;22.62
5877;BME280;2964;42.144;24.730;2022-07-23T07:23:26;151834.50;;;41.38;24.30
5877;BME280;2964;42.144;24.730;2022-07-23T07:25:53;152256.34;;;43.07;22.09
5877;BME280;2964;42.144;24.730;2022-07-23T07:28:20;152124.25;;;42.54;21.36
5877;BME280;2964;42.144;24.730;2022-07-23T07:30:46;151944.75;;;41.82;21.75
5877;BME280;2964;42.144;24.730;2022-07-23T07:33:13;151942.16;;;41.81;23.19
5877;BME280;2964;42.144;24.730;2022-07-23T07:35:40;152044.72;;;42.22;23.10
5877;BME280;2964;42.144;24.730;2022-07-23T07:38:07;151585.91;;;40.38;23.94
5877;BME280;2964;42.144;24.730;2022-07-23T07:40:35;152060.13;;;42.28;23.14
5877;BME280;2964;42.144;24.730;2022-07-23T07:43:01;151005.88;;;38.05;26.00
5877;BME280;2964;42.144;24.730;2022-07-23T07:45:29;151474.47;;;39.93;24.05
5877;BME280;2964;42.144;24.730;2022-07-23T07:47:55;151665.31;;;40.70;22.68
5877;BME280;2964;42.144;24.730;2022-07-23T07:50:22;151892.13;;;41.61;24.29
5877;BME280;2964;42.144;24.730;2022-07-23T07:52:49;151521.84;;;40.12;23.84
5877;BME280;2964;42.144;24.730;2022-07-23T07:55:16;151942.16;;;41.81;23.50
5877;BME280;2964;42.144;24.730;2022-07-23T07:57:44;151375.84;;;39.54;23.56
5877;BME280;2964;42.144;24.730;2022-07-23T08:00:11;151643.53;;;40.61;23.63
5877;BME280;2964;42.144;24.730;2022-07-23T08:02:43;151779.34;;;41.16;22.34
5877;BME280;2964;42.144;24.730;2022-07-23T08:05:10;151666.56;;;40.70;23.35
5877;BME280;2964;42.144;24.730;2022-07-23T08:07:37;151853.69;;;41.45;23.05
5877;BME280;2964;42.144;24.730;2022-07-23T08:10:05;151987.03;;;41.99;22.09
5877;BME280;2964;42.144;24.730;2022-07-23T08:12:40;152034.47;;;42.18;21.91
5877;BME280;2964;42.144;24.730;2022-07-23T08:15:10;152052.41;;;42.25;21.86
5877;BME280;2964;42.144;24.730;2022-07-23T08:17:37;151757.56;;;41.07;23.00
5877;BME280;2964;42.144;24.730;2022-07-23T08:20:05;151967.81;;;41.91;22.69
5877;BME280;2964;42.144;24.730;2022-07-23T08:22:46;152131.94;;;42.57;21.98
5877;BME280;2964;42.144;24.730;2022-07-23T08:25:13;152046.03;;;42.22;21.54
5877;BME280;2964;42.144;24.730;2022-07-23T08:27:40;151985.75;;;41.98;21.63
5877;BME280;2964;42.144;24.730;2022-07-23T08:30:09;152084.47;;;42.38;20.35
5877;BME280;2964;42.144;24.730;2022-07-23T08:32:50;151997.25;;;42.03;20.37
5877;BME280;2964;42.144;24.730;2022-07-23T08:35:17;152012.66;;;42.09;21.40
5877;BME280;2964;42.144;24.730;2022-07-23T08:37:44;152201.16;;;42.85;20.93
5877;BME280;2964;42.144;24.730;2022-07-23T08:40:11;151862.69;;;41.49;21.74
5877;BME280;2964;42.144;24.730;2022-07-23T08:42:38;152098.56;;;42.43;22.69
5877;BME280;2964;42.144;24.730;2022-07-23T08:45:09;152124.25;;;42.54;23.00
5877;BME280;2964;42.144;24.730;2022-07-23T08:47:37;152079.34;;;42.36;20.58
5877;BME280;2964;42.144;24.730;2022-07-23T08:50:07;152184.50;;;42.78;20.42
5877;BME280;2964;42.144;24.730;2022-07-23T08:52:34;152482.13;;;43.97;19.83
5877;BME280;2964;42.144;24.730;2022-07-23T08:55:01;151947.28;;;41.83;20.61
5877;BME280;2964;42.144;24.730;2022-07-23T08:57:28;152044.72;;;42.22;21.82
5877;BME280;2964;42.144;24.730;2022-07-23T08:59:55;152329.47;;;43.36;19.55
5877;BME280;2964;42.144;24.730;2022-07-23T09:02:23;152444.94;;;43.82;21.10
5877;BME280;2964;42.144;24.730;2022-07-23T09:04:50;152628.47;;;44.56;19.09
5877;BME280;2964;42.144;24.730;2022-07-23T09:07:17;152555.31;;;44.26;19.06
5877;BME280;2964;42.144;24.730;2022-07-23T09:09:44;152528.34;;;44.16;20.06
5877;BME280;2964;42.144;24.730;2022-07-23T09:12:11;152072.94;;;42.33;18.79
5877;BME280;2964;42.144;24.730;2022-07-23T09:14:39;151580.78;;;40.36;20.94
5877;BME280;2964;42.144;24.730;2022-07-23T09:17:11;151990.88;;;42.00;20.67
5877;BME280;2964;42.144;24.730;2022-07-23T09:19:41;152066.50;;;42.31;20.26
5877;BME280;2964;42.144;24.730;2022-07-23T09:22:18;152609.19;;;44.48;19.51
5877;BME280;2964;42.144;24.730;2022-07-23T09:25:04;152886.53;;;45.59;18.04
5877;BME280;2964;42.144;24.730;2022-07-23T09:27:50;152818.47;;;45.32;18.26
5877;BME280;2964;42.144;24.730;2022-07-23T09:30:18;152882.66;;;45.57;18.44
5877;BME280;2964;42.144;24.730;2022-07-23T09:33:03;152483.44;;;43.98;19.96
5877;BME280;2964;42.144;24.730;2022-07-23T09:35:45;152781.22;;;45.17;18.69
5877;BME280;2964;42.144;24.730;2022-07-23T09:38:13;152683.66;;;44.78;18.85
5877;BME280;2964;42.144;24.730;2022-07-23T09:40:40;152795.34;;;45.22;17.81
5877;BME280;2964;42.144;24.730;2022-07-23T09:43:07;152837.72;;;45.39;18.04
5877;BME280;2964;42.144;24.730;2022-07-23T09:45:33;152744.00;;;45.02;18.16
5877;BME280;2964;42.144;24.730;2022-07-23T09:48:12;152889.09;;;45.60;16.81
5877;BME280;2964;42.144;24.730;2022-07-23T09:50:40;152493.69;;;44.02;17.45
5877;BME280;2964;42.144;24.730;2022-07-23T09:53:08;152587.38;;;44.39;16.13
5877;BME280;2964;42.144;24.730;2022-07-23T09:55:36;152642.59;;;44.61;16.92
5877;BME280;2964;42.144;24.730;2022-07-23T09:58:04;152732.47;;;44.97;15.96
5877;BME280;2964;42.144;24.730;2022-07-23T10:00:32;152686.25;;;44.79;17.54
5877;BME280;2964;42.144;24.730;2022-07-23T10:02:59;152503.94;;;44.06;17.71
5877;BME280;2964;42.144;24.730;2022-07-23T10:05:28;152643.88;;;44.62;17.17
5877;BME280;2964;42.144;24.730;2022-07-23T10:07:59;152428.28;;;43.75;17.72
5877;BME280;2964;42.144;24.730;2022-07-23T10:10:30;151988.28;;;41.99;17.57
5877;BME280;2964;42.144;24.730;2022-07-23T10:12:57;152076.75;;;42.35;18.36
5877;BME280;2964;42.144;24.730;2022-07-23T10:15:50;151837.03;;;41.39;19.53
5877;BME280;2964;42.144;24.730;2022-07-23T10:18:17;151698.63;;;40.83;20.08
5877;BME280;2964;42.144;24.730;2022-07-23T10:20:44;151560.22;;;40.28;20.39
5877;BME280;2964;42.144;24.730;2022-07-23T10:23:19;151605.13;;;40.46;20.72
5877;BME280;2964;42.144;24.730;2022-07-23T10:25:56;151523.09;;;40.13;21.22
5877;BME280;2964;42.144;24.730;2022-07-23T10:31:40;151130.06;;;38.55;20.81
5877;BME280;2964;42.144;24.730;2022-07-23T10:34:13;151210.63;;;38.88;20.34
5877;BME280;2964;42.144;24.730;2022-07-23T10:36:46;151192.72;;;38.80;21.26
5877;BME280;2964;42.144;24.730;2022-07-23T10:39:17;151136.44;;;38.58;21.36
5877;BME280;2964;42.144;24.730;2022-07-23T10:41:47;151087.78;;;38.38;21.28
5877;BME280;2964;42.144;24.730;2022-07-23T10:44:15;151022.53;;;38.12;21.71
5877;BME280;2964;42.144;24.730;2022-07-23T10:46:57;150925.28;;;37.73;21.56
5877;BME280;2964;42.144;24.730;2022-07-23T10:49:37;150917.59;;;37.70;21.39
5877;BME280;2964;42.144;24.730;2022-07-23T10:52:18;150826.78;;;37.34;20.83
5877;BME280;2964;42.144;24.730;2022-07-23T10:54:47;150812.72;;;37.28;21.25
5877;BME280;2964;42.144;24.730;2022-07-23T10:57:17;150810.13;;;37.27;21.91
5877;BME280;2964;42.144;24.730;2022-07-23T11:00:11;150811.41;;;37.27;20.34
5877;BME280;2964;42.144;24.730;2022-07-23T11:02:40;150767.91;;;37.10;21.31
5877;BME280;2964;42.144;24.730;2022-07-23T11:05:09;150528.81;;;36.14;20.88
5877;BME280;2964;42.144;24.730;2022-07-23T11:08:09;150747.44;;;37.02;21.97
5877;BME280;2964;42.144;24.730;2022-07-23T11:10:32;150625.97;;;36.53;21.72
5877;BME280;2964;42.144;24.730;2022-07-23T11:16:25;150675.88;;;36.73;21.25
5877;BME280;2964;42.144;24.730;2022-07-23T11:19:13;150592.75;;;36.40;21.28
5877;BME280;2964;42.144;24.730;2022-07-23T11:21:44;150619.59;;;36.50;21.22
5877;BME280;2964;42.144;24.730;2022-07-23T11:24:12;150601.69;;;36.43;21.19
5877;BME280;2964;42.144;24.730;2022-07-23T11:26:45;150674.59;;;36.73;21.37
5877;BME280;2964;42.144;24.730;2022-07-23T11:32:36;150684.81;;;36.77;20.85
5877;BME280;2964;42.144;24.730;2022-07-23T11:35:25;150719.31;;;36.90;21.58
5877;BME280;2964;42.144;24.730;2022-07-23T11:37:54;150733.38;;;36.96;21.23
5877;BME280;2964;42.144;24.730;2022-07-23T11:40:24;150643.88;;;36.60;20.77
5877;BME280;2964;42.144;24.730;2022-07-23T11:42:53;150452.13;;;35.83;22.38
5877;BME280;2964;42.144;24.730;2022-07-23T11:45:21;150672.03;;;36.71;21.73
5877;BME280;2964;42.144;24.730;2022-07-23T11:47:50;150700.16;;;36.83;23.19
5877;BME280;2964;42.144;24.730;2022-07-23T11:50:17;150611.91;;;36.47;22.14
5877;BME280;2964;42.144;24.730;2022-07-23T11:52:44;150712.94;;;36.88;20.02
5877;BME280;2964;42.144;24.730;2022-07-23T11:55:12;150710.38;;;36.87;20.65
5877;BME280;2964;42.144;24.730;2022-07-23T11:57:42;150719.31;;;36.90;20.56
5877;BME280;2964;42.144;24.730;2022-07-23T12:00:11;150697.63;;;36.82;21.66
5877;BME280;2964;42.144;24.730;2022-07-23T12:02:38;150684.81;;;36.77;19.89
5877;BME280;2964;42.144;24.730;2022-07-23T12:05:07;150687.34;;;36.78;20.62
5877;BME280;2964;42.144;24.730;2022-07-23T12:07:37;150744.91;;;37.01;21.19
5877;BME280;2964;42.144;24.730;2022-07-23T12:10:10;150718.06;;;36.90;21.71
5877;BME280;2964;42.144;24.730;2022-07-23T12:12:38;150669.44;;;36.70;22.45
5877;BME280;2964;42.144;24.730;2022-07-23T12:15:07;150672.03;;;36.71;22.87
5877;BME280;2964;42.144;24.730;2022-07-23T12:17:35;150688.66;;;36.78;23.59
5877;BME280;2964;42.144;24.730;2022-07-23T12:20:04;150663.09;;;36.68;23.17
5877;BME280;2964;42.144;24.730;2022-07-23T12:22:37;150594.03;;;36.40;22.17
5877;BME280;2964;42.144;24.730;2022-07-23T12:25:07;150579.97;;;36.35;22.93
5877;BME280;2964;42.144;24.730;2022-07-23T12:27:35;150477.69;;;35.93;22.69
5877;BME280;2964;42.144;24.730;2022-07-23T12:30:19;150664.34;;;36.68;24.69
5877;BME280;2964;42.144;24.730;2022-07-23T12:32:49;150629.81;;;36.55;24.55
5877;BME280;2964;42.144;24.730;2022-07-23T12:35:16;150620.88;;;36.51;22.54
5877;BME280;2964;42.144;24.730;2022-07-23T12:37:47;150535.19;;;36.17;24.22
5877;BME280;2964;42.144;24.730;2022-07-23T12:40:26;150600.38;;;36.43;23.39
5877;BME280;2964;42.144;24.730;2022-07-23T12:42:56;150594.03;;;36.40;22.28
5877;BME280;2964;42.144;24.730;2022-07-23T12:45:24;150610.66;;;36.47;23.19
5877;BME280;2964;42.144;24.730;2022-07-23T12:47:57;150628.53;;;36.54;21.92
5877;BME280;2964;42.144;24.730;2022-07-23T12:50:48;150560.81;;;36.27;21.94
5877;BME280;2964;42.144;24.730;2022-07-23T12:53:18;150321.81;;;35.31;23.68
5877;BME280;2964;42.144;24.730;2022-07-23T12:55:47;150638.75;;;36.58;23.26
5877;BME280;2964;42.144;24.730;2022-07-23T12:58:16;150562.06;;;36.27;22.20
5877;BME280;2964;42.144;24.730;2022-07-23T13:00:54;150592.75;;;36.40;23.54
5877;BME280;2964;42.144;24.730;2022-07-23T13:03:22;150601.69;;;36.43;24.23
5877;BME280;2964;42.144;24.730;2022-07-23T13:05:49;150541.66;;;36.19;22.13
5877;BME280;2964;42.144;24.730;2022-07-23T13:08:17;150583.81;;;36.36;22.94
5877;BME280;2964;42.144;24.730;2022-07-23T13:10:44;150556.97;;;36.25;22.12
5877;BME280;2964;42.144;24.730;2022-07-23T13:13:14;150498.13;;;36.02;21.68
5877;BME280;2964;42.144;24.730;2022-07-23T13:15:42;150571.00;;;36.31;23.24
5877;BME280;2964;42.144;24.730;2022-07-23T13:18:09;150574.88;;;36.32;23.56